createdAt,value
2017-08-23T00:00:14.210Z,81.62
2017-08-23T00:02:41.938Z,81.43
2017-08-23T00:05:09.713Z,82.84
2017-08-23T00:07:37.520Z,82.47
2017-08-23T00:10:05.506Z,82.49
2017-08-23T00:12:33.405Z,82.39
2017-08-23T00:15:01.336Z,81.77
2017-08-23T00:17:29.279Z,82.21
2017-08-23T00:19:57.243Z,81.58
2017-08-23T00:22:25.066Z,81.68
2017-08-23T00:24:52.851Z,82.19
2017-08-23T00:27:20.588Z,81.85
2017-08-23T00:29:48.294Z,81.95
2017-08-23T00:32:16.148Z,82.89
2017-08-23T00:34:44.022Z,82.61
2017-08-23T00:37:11.900Z,81.56
2017-08-23T00:39:39.854Z,82.15
2017-08-23T00:42:07.780Z,81.99
2017-08-23T00:44:35.669Z,82.50
2017-08-23T00:47:03.619Z,82.94
2017-08-23T00:49:31.505Z,81.89
2017-08-23T00:51:59.457Z,82.18
2017-08-23T00:54:27.406Z,82.10
2017-08-23T00:56:55.365Z,81.52
2017-08-23T00:59:23.083Z,82.10
2017-08-23T01:01:50.833Z,82.36
2017-08-23T01:04:18.651Z,82.13
2017-08-23T01:06:46.542Z,82.39
2017-08-23T01:09:14.402Z,82.69
2017-08-23T01:11:42.338Z,82.10
2017-08-23T01:14:10.123Z,83.83
2017-08-23T01:16:37.858Z,82.96
2017-08-23T01:19:05.585Z,83.35
2017-08-23T01:21:33.502Z,82.88
2017-08-23T01:24:01.468Z,83.15
2017-08-23T01:26:29.424Z,82.79
2017-08-23T01:28:57.334Z,82.58
2017-08-23T01:31:25.263Z,82.80
2017-08-23T01:33:53.019Z,83.19
2017-08-23T01:36:20.806Z,82.97
2017-08-23T01:38:48.848Z,82.29
2017-08-23T01:41:16.761Z,82.78
2017-08-23T01:43:44.568Z,82.76
2017-08-23T01:46:12.499Z,83.06
2017-08-23T01:48:40.463Z,83.64
2017-08-23T01:51:08.167Z,82.94
2017-08-23T01:53:35.940Z,82.90
2017-08-23T01:56:03.699Z,82.86
2017-08-23T01:58:31.492Z,83.26
2017-08-23T02:00:59.308Z,82.67
2017-08-23T02:03:27.260Z,82.72
2017-08-23T02:05:55.000Z,83.14
2017-08-23T02:08:23.268Z,83.10
2017-08-23T02:10:50.951Z,82.63
2017-08-23T02:13:18.724Z,83.11
2017-08-23T02:15:46.467Z,83.15
2017-08-23T02:18:14.351Z,83.63
2017-08-23T02:20:42.187Z,83.03
2017-08-23T02:23:09.970Z,83.99
2017-08-23T02:25:37.929Z,83.96
2017-08-23T02:28:05.681Z,84.50
2017-08-23T02:30:33.429Z,84.63
2017-08-23T02:33:01.133Z,83.38
2017-08-23T02:35:28.881Z,82.84
2017-08-23T02:37:56.650Z,83.53
2017-08-23T02:40:24.493Z,83.70
2017-08-23T02:42:52.486Z,83.86
2017-08-23T02:45:20.444Z,83.34
2017-08-23T02:47:48.407Z,83.92
2017-08-23T02:50:16.178Z,83.17
2017-08-23T02:52:44.022Z,83.49
2017-08-23T02:55:11.857Z,83.61
2017-08-23T02:57:39.818Z,83.84
2017-08-23T03:00:07.608Z,84.22
2017-08-23T03:02:35.497Z,83.71
2017-08-23T03:05:03.418Z,83.65
2017-08-23T03:07:31.295Z,83.52
2017-08-23T03:09:59.089Z,83.49
2017-08-23T03:12:26.854Z,83.91
2017-08-23T03:14:54.538Z,83.47
2017-08-23T03:17:22.288Z,84.13
2017-08-23T03:19:49.961Z,84.04
2017-08-23T03:22:17.630Z,83.38
2017-08-23T03:24:45.390Z,83.75
2017-08-23T03:27:13.068Z,83.41
2017-08-23T03:29:40.837Z,83.90
2017-08-23T03:32:08.544Z,83.94
2017-08-23T03:34:36.412Z,83.74
2017-08-23T03:37:04.393Z,83.83
2017-08-23T03:39:32.140Z,84.11
2017-08-23T03:41:59.858Z,84.45
2017-08-23T03:44:27.597Z,84.83
2017-08-23T03:46:55.494Z,84.67
2017-08-23T03:49:23.271Z,84.59
2017-08-23T03:51:50.992Z,83.78
2017-08-23T03:54:18.706Z,84.60
2017-08-23T03:56:46.428Z,84.74
2017-08-23T03:59:14.103Z,84.37
2017-08-23T04:01:41.847Z,84.67
2017-08-23T04:04:09.582Z,84.23
2017-08-23T04:06:37.411Z,84.09
2017-08-23T04:09:05.228Z,83.81
2017-08-23T04:11:32.988Z,83.79
2017-08-23T04:14:00.910Z,84.13
2017-08-23T04:16:28.776Z,84.72
2017-08-23T04:18:56.628Z,84.32
2017-08-23T04:21:24.405Z,84.50
2017-08-23T04:23:52.104Z,83.48
2017-08-23T04:26:19.849Z,83.59
2017-08-23T04:28:47.538Z,84.18
2017-08-23T04:31:15.270Z,84.68
2017-08-23T04:33:42.980Z,83.98
2017-08-23T04:36:10.663Z,84.56
2017-08-23T04:38:38.389Z,84.85
2017-08-23T04:41:06.113Z,84.55
2017-08-23T04:43:33.950Z,84.63
2017-08-23T04:46:01.674Z,84.93
2017-08-23T04:48:29.375Z,85.27
2017-08-23T04:50:57.099Z,84.91
2017-08-23T04:53:24.794Z,84.73
2017-08-23T04:55:52.514Z,84.52
2017-08-23T04:58:20.209Z,84.22
2017-08-23T05:00:47.934Z,85.01
2017-08-23T05:03:15.710Z,84.89
2017-08-23T05:05:43.444Z,85.13
2017-08-23T05:08:11.221Z,84.87
2017-08-23T05:10:38.936Z,84.95
2017-08-23T05:13:06.659Z,85.23
2017-08-23T05:15:34.485Z,82.66
2017-08-23T05:18:02.244Z,79.77
2017-08-23T05:20:29.945Z,79.75
2017-08-23T05:22:57.675Z,79.92
2017-08-23T05:25:25.376Z,80.71
2017-08-23T05:27:53.170Z,80.86
2017-08-23T05:30:20.869Z,80.61
2017-08-23T05:32:48.634Z,80.83
2017-08-23T05:35:16.396Z,80.26
2017-08-23T05:37:44.135Z,79.97
2017-08-23T05:40:11.934Z,79.24
2017-08-23T05:42:39.704Z,79.03
2017-08-23T05:45:07.456Z,78.91
2017-08-23T05:47:35.175Z,76.83
2017-08-23T05:50:04.084Z,76.56
2017-08-23T05:52:31.820Z,78.03
2017-08-23T05:54:59.607Z,76.66
2017-08-23T05:57:27.377Z,75.85
2017-08-23T05:59:55.190Z,76.33
2017-08-23T06:02:22.916Z,76.51
2017-08-23T06:04:50.719Z,76.59
2017-08-23T06:07:18.482Z,76.54
2017-08-23T06:09:46.247Z,77.88
2017-08-23T06:12:13.999Z,76.13
2017-08-23T06:14:41.759Z,75.97
2017-08-23T06:17:09.632Z,76.02
2017-08-23T06:19:37.356Z,75.03
2017-08-23T06:22:05.093Z,74.60
2017-08-23T06:24:33.657Z,73.76
2017-08-23T06:27:01.406Z,76.05
2017-08-23T06:29:29.177Z,75.82
2017-08-23T06:31:56.903Z,74.14
2017-08-23T06:34:24.602Z,74.67
2017-08-23T06:36:52.413Z,74.63
2017-08-23T06:39:20.172Z,74.02
2017-08-23T06:41:47.926Z,72.65
2017-08-23T06:44:15.652Z,72.15
2017-08-23T06:46:43.401Z,70.46
2017-08-23T06:49:11.151Z,69.72
2017-08-23T06:51:38.875Z,71.89
2017-08-23T06:54:06.681Z,70.90
2017-08-23T06:56:34.399Z,69.53
2017-08-23T06:59:02.160Z,70.04
2017-08-23T07:01:29.870Z,69.12
2017-08-23T07:03:57.650Z,68.54
2017-08-23T07:06:25.343Z,67.40
2017-08-23T07:08:53.063Z,67.45
2017-08-23T07:11:20.821Z,64.80
2017-08-23T07:13:48.576Z,66.29
2017-08-23T07:16:16.341Z,66.51
2017-08-23T07:18:44.053Z,63.13
2017-08-23T07:21:11.826Z,64.06
2017-08-23T07:23:39.629Z,64.49
2017-08-23T07:26:07.423Z,64.90
2017-08-23T07:28:35.187Z,67.16
2017-08-23T07:31:02.985Z,67.17
2017-08-23T07:33:30.765Z,68.24
2017-08-23T07:35:58.489Z,69.67
2017-08-23T07:38:26.223Z,68.75
2017-08-23T07:40:53.991Z,67.09
2017-08-23T07:43:21.716Z,67.74
2017-08-23T07:45:49.425Z,69.70
2017-08-23T07:48:17.182Z,69.56
2017-08-23T07:50:44.955Z,69.63
2017-08-23T07:53:12.733Z,68.68
2017-08-23T07:55:40.658Z,69.70
2017-08-23T07:58:08.387Z,69.58
2017-08-23T08:00:36.098Z,69.34
2017-08-23T08:03:03.877Z,69.31
2017-08-23T08:05:31.623Z,69.90
2017-08-23T08:07:59.371Z,71.10
2017-08-23T08:10:27.166Z,66.57
2017-08-23T08:12:54.972Z,64.01
2017-08-23T08:15:22.697Z,65.68
2017-08-23T08:17:50.512Z,66.68
2017-08-23T08:20:18.443Z,66.34
2017-08-23T08:22:46.202Z,63.06
2017-08-23T08:25:13.970Z,64.55
2017-08-23T08:27:42.347Z,65.31
2017-08-23T08:30:10.354Z,63.30
2017-08-23T08:32:38.086Z,63.69
2017-08-23T08:35:05.914Z,57.52
2017-08-23T08:37:33.680Z,57.97
2017-08-23T08:40:01.449Z,58.07
2017-08-23T08:42:29.187Z,58.07
2017-08-23T08:44:56.886Z,55.94
2017-08-23T08:47:24.693Z,54.59
2017-08-23T08:49:52.481Z,55.70
2017-08-23T08:52:20.197Z,57.56
2017-08-23T08:54:47.985Z,56.18
2017-08-23T08:57:15.730Z,54.89
2017-08-23T08:59:43.463Z,55.67
2017-08-23T09:02:11.245Z,56.41
2017-08-23T09:04:39.094Z,56.25
2017-08-23T09:07:06.786Z,57.58
2017-08-23T09:09:34.583Z,59.13
2017-08-23T09:12:03.184Z,56.32
2017-08-23T09:14:31.351Z,58.96
2017-08-23T09:16:59.080Z,59.39
2017-08-23T09:19:26.845Z,59.49
2017-08-23T09:21:54.590Z,59.01
2017-08-23T09:24:22.497Z,59.34
2017-08-23T09:26:50.295Z,58.85
2017-08-23T09:29:18.073Z,59.99
2017-08-23T09:31:46.867Z,59.31
2017-08-23T09:34:14.576Z,59.85
2017-08-23T09:36:42.329Z,58.82
2017-08-23T09:39:10.026Z,58.93
2017-08-23T09:41:37.734Z,61.86
2017-08-23T09:44:06.612Z,60.79
2017-08-23T09:46:34.316Z,59.62
2017-08-23T09:49:02.018Z,60.85
2017-08-23T09:51:29.778Z,59.99
2017-08-23T09:53:57.546Z,61.00
2017-08-23T09:56:25.273Z,60.44
2017-08-23T09:58:53.054Z,60.20
2017-08-23T10:01:20.755Z,60.21
2017-08-23T10:03:48.535Z,59.85
2017-08-23T10:06:16.264Z,58.50
2017-08-23T10:08:44.008Z,59.23
2017-08-23T10:11:11.783Z,59.76
2017-08-23T10:13:39.550Z,59.34
2017-08-23T10:16:07.349Z,59.29
2017-08-23T10:18:35.210Z,60.11
2017-08-23T10:21:02.985Z,59.23
2017-08-23T10:23:30.755Z,58.60
2017-08-23T10:25:58.466Z,56.07
2017-08-23T10:28:26.243Z,55.32
2017-08-23T10:30:55.138Z,57.45
2017-08-23T10:33:23.636Z,55.33
2017-08-23T10:35:51.383Z,56.11
2017-08-23T10:38:20.052Z,56.66
2017-08-23T10:40:47.811Z,55.63
2017-08-23T10:43:16.329Z,54.09
2017-08-23T10:45:45.168Z,53.47
2017-08-23T10:48:12.886Z,54.21
2017-08-23T10:50:40.687Z,55.47
2017-08-23T10:53:08.478Z,52.49
2017-08-23T10:55:36.999Z,52.37
2017-08-23T10:58:04.793Z,53.61
2017-08-23T11:00:32.513Z,50.73
2017-08-23T11:03:00.339Z,52.38
2017-08-23T11:05:28.058Z,50.91
2017-08-23T11:07:55.764Z,49.25
2017-08-23T11:10:23.539Z,50.81
2017-08-23T11:12:51.294Z,49.42
2017-08-23T11:15:18.995Z,46.09
2017-08-23T11:17:46.755Z,45.24
2017-08-23T11:20:14.488Z,46.54
2017-08-23T11:22:42.207Z,47.39
2017-08-23T11:25:09.960Z,49.08
2017-08-23T11:27:37.717Z,48.83
2017-08-23T11:30:06.535Z,48.14
2017-08-23T11:32:34.404Z,47.11
2017-08-23T11:35:02.211Z,48.05
2017-08-23T11:37:29.936Z,47.33
2017-08-23T11:39:57.752Z,48.33
2017-08-23T11:42:25.750Z,47.53
2017-08-23T11:44:53.466Z,49.33
2017-08-23T11:47:21.233Z,47.19
2017-08-23T11:49:48.989Z,48.17
2017-08-23T11:52:16.731Z,48.66
2017-08-23T11:54:44.435Z,47.29
2017-08-23T11:57:12.204Z,47.58
2017-08-23T11:59:39.982Z,45.73
2017-08-23T12:02:07.680Z,47.36
2017-08-23T12:04:35.440Z,46.47
2017-08-23T12:07:03.244Z,46.40
2017-08-23T12:09:31.093Z,43.64
2017-08-23T12:11:58.869Z,42.14
2017-08-23T12:14:26.643Z,45.41
2017-08-23T12:16:54.780Z,44.61
2017-08-23T12:19:22.567Z,42.58
2017-08-23T12:21:50.325Z,45.35
2017-08-23T12:24:18.086Z,45.55
2017-08-23T12:26:45.806Z,46.33
2017-08-23T12:29:13.594Z,44.33
2017-08-23T12:31:41.311Z,46.08
2017-08-23T12:34:09.082Z,43.61
2017-08-23T12:36:36.782Z,42.91
2017-08-23T12:39:04.578Z,41.40
2017-08-23T12:41:32.403Z,41.34
2017-08-23T12:44:00.236Z,41.85
2017-08-23T12:46:28.017Z,41.48
2017-08-23T12:48:55.795Z,38.66
2017-08-23T12:51:23.541Z,40.91
2017-08-23T12:53:51.345Z,41.51
2017-08-23T12:56:19.145Z,41.82
2017-08-23T12:58:46.842Z,41.10
2017-08-23T13:01:14.552Z,41.97
2017-08-23T13:03:42.306Z,39.17
2017-08-23T13:06:10.013Z,40.86
2017-08-23T13:08:37.784Z,40.22
2017-08-23T13:11:05.495Z,38.88
2017-08-23T13:13:33.201Z,35.54
2017-08-23T13:16:01.029Z,36.40
2017-08-23T13:18:29.066Z,38.57
2017-08-23T13:20:56.810Z,37.47
2017-08-23T13:23:24.541Z,37.08
2017-08-23T13:25:52.326Z,34.23
2017-08-23T13:28:20.053Z,34.87
2017-08-23T13:30:47.812Z,35.87
2017-08-23T13:33:15.564Z,34.12
2017-08-23T13:35:43.316Z,35.14
2017-08-23T13:38:11.134Z,35.78
2017-08-23T13:40:38.885Z,34.92
2017-08-23T13:43:07.375Z,34.26
2017-08-23T13:45:35.158Z,34.53
2017-08-23T13:48:02.936Z,35.87
2017-08-23T13:50:30.720Z,33.03
2017-08-23T13:52:58.500Z,33.12
2017-08-23T13:55:26.232Z,33.28
2017-08-23T13:57:54.125Z,33.52
2017-08-23T14:00:21.890Z,33.49
2017-08-23T14:02:49.610Z,33.75
2017-08-23T14:05:17.464Z,35.03
2017-08-23T14:07:45.277Z,37.21
2017-08-23T14:10:12.989Z,37.60
2017-08-23T14:12:41.434Z,35.77
2017-08-23T14:15:09.575Z,37.53
2017-08-23T14:17:38.154Z,36.45
2017-08-23T14:20:07.422Z,37.73
2017-08-23T14:22:36.149Z,37.36
2017-08-23T14:25:04.977Z,37.17
2017-08-23T14:27:33.856Z,37.31
2017-08-23T14:30:03.605Z,37.18
2017-08-23T14:32:31.594Z,36.78
2017-08-23T14:35:00.699Z,38.33
2017-08-23T14:37:29.156Z,36.24
2017-08-23T14:39:56.912Z,35.96
2017-08-23T14:42:24.711Z,38.41
2017-08-23T14:44:52.739Z,38.07
2017-08-23T14:47:20.465Z,37.66
2017-08-23T14:49:48.203Z,37.04
2017-08-23T14:52:16.276Z,39.92
2017-08-23T14:54:44.878Z,39.54
2017-08-23T14:57:12.604Z,39.51
2017-08-23T14:59:40.343Z,39.18
2017-08-23T15:02:08.489Z,38.14
2017-08-23T15:04:36.236Z,37.93
2017-08-23T15:07:04.161Z,37.21
2017-08-23T15:09:32.212Z,37.20
2017-08-23T15:11:59.993Z,38.55
2017-08-23T15:14:27.718Z,38.27
2017-08-23T15:16:55.467Z,38.49
2017-08-23T15:19:23.234Z,36.55
2017-08-23T15:21:51.005Z,36.73
2017-08-23T15:24:18.865Z,38.35
2017-08-23T15:26:47.872Z,44.55
2017-08-23T15:29:15.728Z,44.00
2017-08-23T15:31:43.530Z,43.27
2017-08-23T15:34:11.239Z,42.60
2017-08-23T15:36:39.076Z,45.16
2017-08-23T15:39:06.807Z,47.54
2017-08-23T15:41:34.785Z,49.00
2017-08-23T15:44:02.589Z,47.60
2017-08-23T15:46:30.297Z,49.75
2017-08-23T15:48:58.074Z,50.61
2017-08-23T15:51:25.854Z,51.44
2017-08-23T15:53:53.607Z,50.47
2017-08-23T15:56:21.350Z,51.91
2017-08-23T15:58:49.087Z,51.35
2017-08-23T16:01:16.930Z,54.22
2017-08-23T16:03:44.833Z,52.92
2017-08-23T16:06:12.599Z,54.70
2017-08-23T16:08:41.626Z,54.79
2017-08-23T16:11:09.709Z,57.25
2017-08-23T16:13:37.497Z,56.70
2017-08-23T16:16:05.204Z,57.53
2017-08-23T16:18:32.930Z,58.08
2017-08-23T16:21:00.688Z,60.05
2017-08-23T16:23:28.466Z,57.94
2017-08-23T16:25:56.279Z,59.02
2017-08-23T16:28:24.673Z,58.77
2017-08-23T16:30:52.438Z,59.34
2017-08-23T16:33:20.242Z,61.11
2017-08-23T16:35:48.001Z,61.60
2017-08-23T16:38:15.798Z,61.71
2017-08-23T16:40:43.505Z,62.83
2017-08-23T16:43:12.369Z,62.39
2017-08-23T16:45:40.121Z,62.26
2017-08-23T16:48:07.871Z,61.75
2017-08-23T16:50:35.658Z,62.97
2017-08-23T16:53:03.393Z,62.79
2017-08-23T16:55:31.211Z,63.70
2017-08-23T16:57:59.185Z,64.62
2017-08-23T17:00:27.083Z,63.40
2017-08-23T17:02:54.825Z,62.81
2017-08-23T17:05:22.582Z,63.15
2017-08-23T17:07:50.281Z,63.71
2017-08-23T17:10:18.017Z,63.40
2017-08-23T17:12:45.784Z,64.93
2017-08-23T17:15:13.563Z,64.68
2017-08-23T17:17:41.377Z,64.53
2017-08-23T17:20:09.201Z,64.77
2017-08-23T17:22:36.973Z,65.69
2017-08-23T17:25:04.874Z,65.09
2017-08-23T17:27:32.740Z,65.16
2017-08-23T17:30:00.652Z,65.75
2017-08-23T17:32:28.387Z,65.40
2017-08-23T17:34:56.189Z,65.47
2017-08-23T17:37:24.133Z,66.26
2017-08-23T17:39:51.926Z,66.74
2017-08-23T17:42:19.793Z,65.99
2017-08-23T17:44:47.544Z,66.75
2017-08-23T17:47:16.030Z,66.46
2017-08-23T17:49:43.877Z,67.33
2017-08-23T17:52:11.711Z,66.64
2017-08-23T17:54:39.477Z,67.35
2017-08-23T17:57:07.248Z,67.98
2017-08-23T17:59:35.060Z,68.30
2017-08-23T18:02:02.980Z,68.78
2017-08-23T18:04:30.855Z,69.01
2017-08-23T18:06:58.654Z,68.77
2017-08-23T18:09:26.475Z,68.64
2017-08-23T18:11:54.528Z,68.77
2017-08-23T18:14:22.381Z,68.07
2017-08-23T18:16:50.201Z,69.02
2017-08-23T18:19:18.034Z,69.03
2017-08-23T18:21:46.760Z,69.17
2017-08-23T18:24:14.505Z,69.66
2017-08-23T18:26:42.405Z,68.82
2017-08-23T18:29:10.222Z,68.28
2017-08-23T18:31:38.076Z,68.77
2017-08-23T18:34:06.104Z,69.36
2017-08-23T18:36:33.977Z,69.39
2017-08-23T18:39:01.791Z,71.33
2017-08-23T18:41:29.602Z,71.78
2017-08-23T18:43:57.406Z,71.35
2017-08-23T18:46:25.207Z,71.25
2017-08-23T18:48:52.977Z,71.05
2017-08-23T18:51:20.723Z,71.22
2017-08-23T18:53:48.478Z,72.23
2017-08-23T18:56:16.277Z,72.15
2017-08-23T18:58:44.101Z,72.92
2017-08-23T19:01:11.854Z,73.09
2017-08-23T19:03:39.641Z,72.91
2017-08-23T19:06:07.575Z,73.48
2017-08-23T19:08:35.378Z,73.68
2017-08-23T19:11:03.090Z,73.90
2017-08-23T19:13:30.850Z,74.09
2017-08-23T19:15:58.694Z,74.32
2017-08-23T19:18:26.491Z,74.64
2017-08-23T19:20:54.264Z,74.04
2017-08-23T19:23:22.075Z,74.60
2017-08-23T19:25:49.922Z,74.67
2017-08-23T19:28:17.651Z,74.44
2017-08-23T19:30:45.578Z,74.00
2017-08-23T19:33:13.327Z,74.14
2017-08-23T19:35:41.137Z,74.72
2017-08-23T19:38:09.185Z,74.82
2017-08-23T20:16:08.394Z,77.83
2017-08-23T20:18:36.164Z,78.32
2017-08-23T20:21:04.135Z,77.77
2017-08-23T20:23:31.989Z,76.93
2017-08-23T20:26:02.006Z,77.08
2017-08-23T20:28:31.450Z,77.09
2017-08-23T20:30:59.252Z,77.21
2017-08-23T20:33:27.072Z,77.95
2017-08-23T20:35:58.531Z,78.00
2017-08-23T20:38:27.546Z,77.36
2017-08-23T20:40:55.327Z,78.08
2017-08-23T20:43:23.162Z,77.93
2017-08-23T20:45:51.023Z,76.99
2017-08-23T20:48:18.836Z,77.16
2017-08-23T20:50:46.749Z,78.41
2017-08-23T20:53:14.562Z,79.16
2017-08-23T20:55:42.318Z,78.74
2017-08-23T20:58:10.133Z,78.15
2017-08-23T21:00:38.275Z,78.47
2017-08-23T21:03:06.791Z,78.63
2017-08-23T21:05:34.546Z,79.03
2017-08-23T21:08:03.617Z,79.18
2017-08-23T21:10:31.410Z,78.06
2017-08-23T21:13:00.536Z,78.84
2017-08-23T21:15:28.248Z,78.93
2017-08-23T21:17:57.971Z,79.31
2017-08-23T21:20:26.517Z,79.00
2017-08-23T21:22:55.222Z,79.19
2017-08-23T21:25:23.082Z,80.38
2017-08-23T21:27:50.838Z,79.94
2017-08-23T21:30:19.492Z,79.64
2017-08-23T21:32:47.283Z,79.98
2017-08-23T21:35:15.067Z,78.92
2017-08-23T21:37:43.779Z,79.71
2017-08-23T21:40:11.604Z,80.23
2017-08-23T21:42:39.527Z,79.88
2017-08-23T21:45:07.397Z,80.29
2017-08-23T21:47:35.312Z,80.46
2017-08-23T21:50:03.151Z,80.84
2017-08-23T21:52:30.862Z,79.97
2017-08-23T21:54:58.595Z,79.95
2017-08-23T21:57:26.381Z,80.38
2017-08-23T21:59:54.176Z,79.72
2017-08-23T22:02:22.023Z,80.04
2017-08-23T22:04:49.864Z,80.48
2017-08-23T22:07:17.732Z,80.39
2017-08-23T22:09:45.822Z,80.01
2017-08-23T22:12:14.472Z,80.59
2017-08-23T22:14:42.188Z,80.74
2017-08-23T22:17:10.055Z,80.34
2017-08-23T22:19:37.795Z,81.22
2017-08-23T22:22:05.614Z,80.37
2017-08-23T22:24:33.423Z,81.22
2017-08-23T22:27:01.306Z,80.82
2017-08-23T22:29:29.050Z,80.39
2017-08-23T22:31:56.839Z,80.85
2017-08-23T22:34:24.623Z,81.67
2017-08-23T22:36:52.339Z,81.09
2017-08-23T22:39:20.243Z,80.42
2017-08-23T22:41:48.040Z,81.05
2017-08-23T22:44:15.831Z,81.47
2017-08-23T22:46:43.557Z,81.49
2017-08-23T22:49:11.373Z,80.72
2017-08-23T22:51:39.165Z,81.35
2017-08-23T22:54:06.891Z,81.04
2017-08-23T22:56:34.668Z,81.75
2017-08-23T22:59:02.504Z,82.02
2017-08-23T23:01:30.248Z,81.85
2017-08-23T23:03:57.995Z,81.34
2017-08-23T23:06:25.810Z,81.45
2017-08-23T23:08:53.532Z,81.16
2017-08-23T23:11:22.127Z,81.69
2017-08-23T23:13:49.861Z,81.72
2017-08-23T23:16:17.712Z,82.81
2017-08-23T23:18:45.525Z,82.45
2017-08-23T23:21:13.364Z,81.50
2017-08-23T23:23:41.116Z,81.78
2017-08-23T23:26:08.864Z,82.14
2017-08-23T23:28:36.643Z,82.21
2017-08-23T23:31:17.459Z,82.52
2017-08-23T23:33:45.487Z,81.94
2017-08-23T23:36:13.216Z,81.78
2017-08-23T23:38:40.995Z,82.42
2017-08-23T23:41:09.725Z,82.38
2017-08-23T23:43:37.465Z,81.82
2017-08-23T23:46:06.459Z,81.90
2017-08-23T23:48:34.889Z,82.08
2017-08-23T23:51:02.645Z,82.66
2017-08-23T23:53:30.458Z,82.71
2017-08-23T23:56:00.018Z,82.75
2017-08-23T23:58:28.871Z,81.72
